sensor_id;sensor_type;location;lat;lon;timestamp;P1;durP1;ratioP1;P2;durP2;ratioP2
36789;SDS011;22740;52.182;8.780;2023-05-10T00:03:45;6.80;;;5.70;;
36789;SDS011;22740;52.182;8.780;2023-05-10T00:09:47;7.75;;;6.43;;
36789;SDS011;22740;52.182;8.780;2023-05-10T00:15:49;8.52;;;6.43;;
36789;SDS011;22740;52.182;8.780;2023-05-10T00:21:51;10.25;;;6.75;;
36789;SDS011;22740;52.182;8.780;2023-05-10T00:27:53;10.10;;;8.15;;
36789;SDS011;22740;52.182;8.780;2023-05-10T00:33:56;11.82;;;8.90;;
36789;SDS011;22740;52.182;8.780;2023-05-10T00:39:58;12.07;;;9.73;;
36789;SDS011;22740;52.182;8.780;2023-05-10T00:46:00;9.35;;;7.35;;
36789;SDS011;22740;52.182;8.780;2023-05-10T00:52:02;9.85;;;7.78;;
36789;SDS011;22740;52.182;8.780;2023-05-10T00:58:04;11.38;;;9.00;;
36789;SDS011;22740;52.182;8.780;2023-05-10T01:04:07;11.38;;;9.15;;
36789;SDS011;22740;52.182;8.780;2023-05-10T01:10:10;10.10;;;7.82;;
36789;SDS011;22740;52.182;8.780;2023-05-10T01:16:12;8.98;;;7.90;;
36789;SDS011;22740;52.182;8.780;2023-05-10T01:35:10;12.15;;;10.05;;
36789;SDS011;22740;52.182;8.780;2023-05-10T01:47:50;12.90;;;10.00;;
36789;SDS011;22740;52.182;8.780;2023-05-10T01:54:02;12.23;;;10.93;;
36789;SDS011;22740;52.182;8.780;2023-05-10T02:00:06;13.43;;;10.88;;
36789;SDS011;22740;52.182;8.780;2023-05-10T02:06:10;14.00;;;11.77;;
36789;SDS011;22740;52.182;8.780;2023-05-10T02:12:15;14.10;;;11.55;;
36789;SDS011;22740;52.182;8.780;2023-05-10T02:18:18;13.02;;;11.13;;
36789;SDS011;22740;52.182;8.780;2023-05-10T02:24:20;11.18;;;9.45;;
36789;SDS011;22740;52.182;8.780;2023-05-10T02:30:25;13.88;;;11.18;;
36789;SDS011;22740;52.182;8.780;2023-05-10T02:36:28;15.43;;;11.13;;
36789;SDS011;22740;52.182;8.780;2023-05-10T02:42:32;11.60;;;10.10;;
36789;SDS011;22740;52.182;8.780;2023-05-10T02:48:36;14.38;;;8.00;;
36789;SDS011;22740;52.182;8.780;2023-05-10T02:54:41;5.40;;;3.88;;
36789;SDS011;22740;52.182;8.780;2023-05-10T03:00:52;6.75;;;4.20;;
36789;SDS011;22740;52.182;8.780;2023-05-10T03:06:55;7.32;;;4.00;;
36789;SDS011;22740;52.182;8.780;2023-05-10T03:19:26;6.80;;;3.60;;
36789;SDS011;22740;52.182;8.780;2023-05-10T03:25:33;5.82;;;2.88;;
36789;SDS011;22740;52.182;8.780;2023-05-10T03:31:37;4.37;;;2.93;;
36789;SDS011;22740;52.182;8.780;2023-05-10T03:37:40;4.17;;;2.73;;
36789;SDS011;22740;52.182;8.780;2023-05-10T03:43:44;4.70;;;3.57;;
36789;SDS011;22740;52.182;8.780;2023-05-10T03:49:46;5.72;;;3.75;;
36789;SDS011;22740;52.182;8.780;2023-05-10T03:55:48;7.47;;;4.45;;
36789;SDS011;22740;52.182;8.780;2023-05-10T04:01:50;6.40;;;5.25;;
36789;SDS011;22740;52.182;8.780;2023-05-10T04:07:52;6.70;;;5.10;;
36789;SDS011;22740;52.182;8.780;2023-05-10T04:13:54;6.93;;;4.95;;
36789;SDS011;22740;52.182;8.780;2023-05-10T04:19:56;5.53;;;4.55;;
36789;SDS011;22740;52.182;8.780;2023-05-10T04:25:59;5.25;;;4.22;;
36789;SDS011;22740;52.182;8.780;2023-05-10T04:32:02;6.78;;;4.97;;
36789;SDS011;22740;52.182;8.780;2023-05-10T04:38:05;5.75;;;4.32;;
36789;SDS011;22740;52.182;8.780;2023-05-10T04:44:07;5.20;;;4.03;;
36789;SDS011;22740;52.182;8.780;2023-05-10T04:50:09;5.53;;;4.22;;
36789;SDS011;22740;52.182;8.780;2023-05-10T04:56:11;5.38;;;3.97;;
36789;SDS011;22740;52.182;8.780;2023-05-10T05:02:13;3.60;;;2.65;;
36789;SDS011;22740;52.182;8.780;2023-05-10T05:08:15;2.08;;;1.23;;
36789;SDS011;22740;52.182;8.780;2023-05-10T05:14:17;1.50;;;1.00;;
36789;SDS011;22740;52.182;8.780;2023-05-10T05:20:19;2.65;;;1.30;;
36789;SDS011;22740;52.182;8.780;2023-05-10T05:26:21;2.88;;;1.10;;
36789;SDS011;22740;52.182;8.780;2023-05-10T05:32:23;1.92;;;1.10;;
36789;SDS011;22740;52.182;8.780;2023-05-10T05:38:26;3.03;;;1.30;;
36789;SDS011;22740;52.182;8.780;2023-05-10T05:44:28;3.53;;;1.25;;
36789;SDS011;22740;52.182;8.780;2023-05-10T05:50:40;2.83;;;1.73;;
36789;SDS011;22740;52.182;8.780;2023-05-10T05:56:47;3.20;;;1.73;;
36789;SDS011;22740;52.182;8.780;2023-05-10T06:02:57;3.92;;;2.80;;
36789;SDS011;22740;52.182;8.780;2023-05-10T06:09:01;4.50;;;3.45;;
36789;SDS011;22740;52.182;8.780;2023-05-10T06:15:07;7.15;;;3.60;;
36789;SDS011;22740;52.182;8.780;2023-05-10T06:21:10;4.18;;;3.40;;
36789;SDS011;22740;52.182;8.780;2023-05-10T06:27:12;5.00;;;3.70;;
36789;SDS011;22740;52.182;8.780;2023-05-10T06:33:15;5.00;;;3.63;;
36789;SDS011;22740;52.182;8.780;2023-05-10T06:39:17;5.40;;;3.22;;
36789;SDS011;22740;52.182;8.780;2023-05-10T06:45:19;5.57;;;3.30;;
36789;SDS011;22740;52.182;8.780;2023-05-10T06:51:22;5.78;;;3.47;;
36789;SDS011;22740;52.182;8.780;2023-05-10T06:57:24;4.72;;;3.45;;
36789;SDS011;22740;52.182;8.780;2023-05-10T07:03:32;5.10;;;3.40;;
36789;SDS011;22740;52.182;8.780;2023-05-10T07:09:34;6.32;;;3.67;;
36789;SDS011;22740;52.182;8.780;2023-05-10T07:15:37;4.10;;;2.95;;
36789;SDS011;22740;52.182;8.780;2023-05-10T07:21:39;3.90;;;2.55;;
36789;SDS011;22740;52.182;8.780;2023-05-10T07:27:44;3.45;;;2.03;;
36789;SDS011;22740;52.182;8.780;2023-05-10T07:33:47;4.82;;;2.70;;
36789;SDS011;22740;52.182;8.780;2023-05-10T07:39:52;3.47;;;2.40;;
36789;SDS011;22740;52.182;8.780;2023-05-10T07:46:04;4.05;;;2.45;;
36789;SDS011;22740;52.182;8.780;2023-05-10T07:52:06;4.00;;;2.70;;
36789;SDS011;22740;52.182;8.780;2023-05-10T07:58:08;6.35;;;2.38;;
36789;SDS011;22740;52.182;8.780;2023-05-10T08:04:10;5.07;;;3.20;;
36789;SDS011;22740;52.182;8.780;2023-05-10T08:10:14;5.80;;;3.33;;
36789;SDS011;22740;52.182;8.780;2023-05-10T08:16:16;4.70;;;3.60;;
36789;SDS011;22740;52.182;8.780;2023-05-10T08:22:18;5.55;;;3.72;;
36789;SDS011;22740;52.182;8.780;2023-05-10T08:28:20;5.95;;;3.72;;
36789;SDS011;22740;52.182;8.780;2023-05-10T08:34:22;6.50;;;3.90;;
36789;SDS011;22740;52.182;8.780;2023-05-10T08:40:25;7.67;;;4.67;;
36789;SDS011;22740;52.182;8.780;2023-05-10T08:46:27;10.77;;;5.10;;
36789;SDS011;22740;52.182;8.780;2023-05-10T08:52:32;12.05;;;6.60;;
36789;SDS011;22740;52.182;8.780;2023-05-10T08:58:38;10.73;;;6.63;;
36789;SDS011;22740;52.182;8.780;2023-05-10T09:04:40;11.52;;;6.45;;
36789;SDS011;22740;52.182;8.780;2023-05-10T09:10:43;11.77;;;8.02;;
36789;SDS011;22740;52.182;8.780;2023-05-10T09:16:48;12.77;;;7.43;;
36789;SDS011;22740;52.182;8.780;2023-05-10T09:22:50;13.10;;;8.32;;
36789;SDS011;22740;52.182;8.780;2023-05-10T09:28:53;10.20;;;7.90;;
36789;SDS011;22740;52.182;8.780;2023-05-10T09:34:56;14.82;;;8.30;;
36789;SDS011;22740;52.182;8.780;2023-05-10T09:40:58;16.52;;;10.05;;
36789;SDS011;22740;52.182;8.780;2023-05-10T09:47:03;15.73;;;10.23;;
36789;SDS011;22740;52.182;8.780;2023-05-10T09:53:06;14.52;;;9.18;;
36789;SDS011;22740;52.182;8.780;2023-05-10T09:59:09;13.85;;;10.20;;
36789;SDS011;22740;52.182;8.780;2023-05-10T10:05:13;11.20;;;8.13;;
36789;SDS011;22740;52.182;8.780;2023-05-10T10:11:16;10.07;;;6.90;;
36789;SDS011;22740;52.182;8.780;2023-05-10T10:17:18;10.93;;;6.37;;
36789;SDS011;22740;52.182;8.780;2023-05-10T10:23:21;11.27;;;7.70;;
36789;SDS011;22740;52.182;8.780;2023-05-10T10:29:31;15.40;;;7.47;;
36789;SDS011;22740;52.182;8.780;2023-05-10T10:35:36;12.82;;;8.13;;
36789;SDS011;22740;52.182;8.780;2023-05-10T10:41:39;12.50;;;8.10;;
36789;SDS011;22740;52.182;8.780;2023-05-10T10:54:28;11.95;;;7.55;;
36789;SDS011;22740;52.182;8.780;2023-05-10T11:00:31;14.20;;;8.63;;
36789;SDS011;22740;52.182;8.780;2023-05-10T11:06:35;10.13;;;6.70;;
36789;SDS011;22740;52.182;8.780;2023-05-10T11:12:50;9.38;;;6.18;;
36789;SDS011;22740;52.182;8.780;2023-05-10T11:19:11;9.30;;;5.88;;
36789;SDS011;22740;52.182;8.780;2023-05-10T11:25:15;10.90;;;6.05;;
36789;SDS011;22740;52.182;8.780;2023-05-10T11:31:17;9.30;;;4.93;;
36789;SDS011;22740;52.182;8.780;2023-05-10T11:37:20;6.50;;;4.07;;
36789;SDS011;22740;52.182;8.780;2023-05-10T11:43:23;9.20;;;4.05;;
36789;SDS011;22740;52.182;8.780;2023-05-10T11:49:29;4.90;;;3.20;;
36789;SDS011;22740;52.182;8.780;2023-05-10T11:55:33;8.27;;;3.30;;
36789;SDS011;22740;52.182;8.780;2023-05-10T12:07:37;9.98;;;3.50;;
36789;SDS011;22740;52.182;8.780;2023-05-10T12:13:39;8.95;;;4.57;;
36789;SDS011;22740;52.182;8.780;2023-05-10T12:19:42;6.17;;;4.03;;
36789;SDS011;22740;52.182;8.780;2023-05-10T12:25:45;6.28;;;4.15;;
36789;SDS011;22740;52.182;8.780;2023-05-10T12:31:57;7.25;;;4.97;;
36789;SDS011;22740;52.182;8.780;2023-05-10T12:38:00;7.30;;;4.28;;
36789;SDS011;22740;52.182;8.780;2023-05-10T12:44:02;5.80;;;3.20;;
36789;SDS011;22740;52.182;8.780;2023-05-10T12:50:04;7.13;;;3.92;;
36789;SDS011;22740;52.182;8.780;2023-05-10T12:56:06;9.25;;;4.95;;
36789;SDS011;22740;52.182;8.780;2023-05-10T13:02:08;6.95;;;4.30;;
36789;SDS011;22740;52.182;8.780;2023-05-10T13:08:11;9.80;;;5.80;;
36789;SDS011;22740;52.182;8.780;2023-05-10T13:14:13;8.35;;;5.15;;
36789;SDS011;22740;52.182;8.780;2023-05-10T13:20:17;8.30;;;4.82;;
36789;SDS011;22740;52.182;8.780;2023-05-10T13:26:19;10.80;;;5.43;;
36789;SDS011;22740;52.182;8.780;2023-05-10T13:32:21;8.38;;;4.88;;
36789;SDS011;22740;52.182;8.780;2023-05-10T13:38:23;10.63;;;4.60;;
36789;SDS011;22740;52.182;8.780;2023-05-10T13:44:25;8.55;;;4.32;;
36789;SDS011;22740;52.182;8.780;2023-05-10T13:50:27;12.27;;;5.30;;
36789;SDS011;22740;52.182;8.780;2023-05-10T13:56:29;8.00;;;5.13;;
36789;SDS011;22740;52.182;8.780;2023-05-10T14:02:30;7.68;;;4.57;;
36789;SDS011;22740;52.182;8.780;2023-05-10T14:08:33;10.77;;;5.72;;
36789;SDS011;22740;52.182;8.780;2023-05-10T14:14:35;8.67;;;5.23;;
36789;SDS011;22740;52.182;8.780;2023-05-10T14:20:38;10.23;;;5.70;;
36789;SDS011;22740;52.182;8.780;2023-05-10T14:26:40;12.23;;;7.00;;
36789;SDS011;22740;52.182;8.780;2023-05-10T14:32:41;15.40;;;7.78;;
36789;SDS011;22740;52.182;8.780;2023-05-10T14:38:43;9.70;;;5.93;;
36789;SDS011;22740;52.182;8.780;2023-05-10T14:44:45;13.88;;;8.70;;
36789;SDS011;22740;52.182;8.780;2023-05-10T14:50:47;18.63;;;10.90;;
36789;SDS011;22740;52.182;8.780;2023-05-10T14:56:50;17.60;;;9.50;;
36789;SDS011;22740;52.182;8.780;2023-05-10T15:02:52;15.90;;;10.02;;
36789;SDS011;22740;52.182;8.780;2023-05-10T15:08:55;16.92;;;10.10;;
36789;SDS011;22740;52.182;8.780;2023-05-10T15:14:57;13.55;;;9.57;;
36789;SDS011;22740;52.182;8.780;2023-05-10T15:20:59;17.80;;;10.82;;
36789;SDS011;22740;52.182;8.780;2023-05-10T15:27:01;16.77;;;10.57;;
36789;SDS011;22740;52.182;8.780;2023-05-10T15:33:03;15.88;;;10.52;;
36789;SDS011;22740;52.182;8.780;2023-05-10T15:39:05;18.42;;;11.98;;
36789;SDS011;22740;52.182;8.780;2023-05-10T15:45:07;19.10;;;11.73;;
36789;SDS011;22740;52.182;8.780;2023-05-10T15:51:10;16.48;;;10.40;;
36789;SDS011;22740;52.182;8.780;2023-05-10T15:57:12;20.17;;;12.90;;
36789;SDS011;22740;52.182;8.780;2023-05-10T16:03:14;20.90;;;12.80;;
36789;SDS011;22740;52.182;8.780;2023-05-10T16:09:16;21.85;;;13.23;;
36789;SDS011;22740;52.182;8.780;2023-05-10T16:15:18;21.35;;;12.65;;
36789;SDS011;22740;52.182;8.780;2023-05-10T16:21:21;23.73;;;14.95;;
36789;SDS011;22740;52.182;8.780;2023-05-10T16:27:24;27.00;;;14.93;;
36789;SDS011;22740;52.182;8.780;2023-05-10T16:33:28;16.88;;;11.63;;
36789;SDS011;22740;52.182;8.780;2023-05-10T16:39:31;15.90;;;11.02;;
36789;SDS011;22740;52.182;8.780;2023-05-10T16:45:33;21.27;;;13.57;;
36789;SDS011;22740;52.182;8.780;2023-05-10T16:51:35;19.52;;;12.38;;
36789;SDS011;22740;52.182;8.780;2023-05-10T16:57:37;18.85;;;11.70;;
36789;SDS011;22740;52.182;8.780;2023-05-10T17:03:39;17.40;;;10.65;;
36789;SDS011;22740;52.182;8.780;2023-05-10T17:09:41;17.85;;;11.15;;
36789;SDS011;22740;52.182;8.780;2023-05-10T17:15:44;17.65;;;10.55;;
36789;SDS011;22740;52.182;8.780;2023-05-10T17:21:47;19.25;;;10.90;;
36789;SDS011;22740;52.182;8.780;2023-05-10T17:27:49;21.00;;;12.02;;
36789;SDS011;22740;52.182;8.780;2023-05-10T17:33:51;18.13;;;12.40;;
36789;SDS011;22740;52.182;8.780;2023-05-10T17:39:53;22.27;;;12.88;;
36789;SDS011;22740;52.182;8.780;2023-05-10T17:45:55;18.90;;;11.38;;
36789;SDS011;22740;52.182;8.780;2023-05-10T17:51:57;16.77;;;11.27;;
36789;SDS011;22740;52.182;8.780;2023-05-10T17:57:58;18.83;;;12.13;;
36789;SDS011;22740;52.182;8.780;2023-05-10T18:04:01;21.42;;;11.30;;
36789;SDS011;22740;52.182;8.780;2023-05-10T18:10:03;13.15;;;8.75;;
36789;SDS011;22740;52.182;8.780;2023-05-10T18:16:05;14.75;;;9.02;;
36789;SDS011;22740;52.182;8.780;2023-05-10T18:22:09;10.23;;;6.65;;
36789;SDS011;22740;52.182;8.780;2023-05-10T18:28:11;9.70;;;5.57;;
36789;SDS011;22740;52.182;8.780;2023-05-10T18:34:13;5.93;;;3.50;;
36789;SDS011;22740;52.182;8.780;2023-05-10T18:40:16;10.20;;;5.53;;
36789;SDS011;22740;52.182;8.780;2023-05-10T18:46:18;14.07;;;8.80;;
36789;SDS011;22740;52.182;8.780;2023-05-10T18:52:20;13.80;;;9.50;;
36789;SDS011;22740;52.182;8.780;2023-05-10T18:58:22;19.52;;;12.27;;
36789;SDS011;22740;52.182;8.780;2023-05-10T19:04:24;20.08;;;12.95;;
36789;SDS011;22740;52.182;8.780;2023-05-10T19:10:26;22.48;;;12.63;;
36789;SDS011;22740;52.182;8.780;2023-05-10T19:16:28;18.45;;;11.45;;
36789;SDS011;22740;52.182;8.780;2023-05-10T19:22:31;18.55;;;11.35;;
36789;SDS011;22740;52.182;8.780;2023-05-10T19:28:49;16.25;;;9.18;;
36789;SDS011;22740;52.182;8.780;2023-05-10T19:34:52;16.38;;;9.40;;
36789;SDS011;22740;52.182;8.780;2023-05-10T19:40:54;19.05;;;10.52;;
36789;SDS011;22740;52.182;8.780;2023-05-10T19:47:00;16.80;;;10.30;;
36789;SDS011;22740;52.182;8.780;2023-05-10T19:53:03;13.07;;;7.80;;
36789;SDS011;22740;52.182;8.780;2023-05-10T19:59:05;12.05;;;6.50;;
36789;SDS011;22740;52.182;8.780;2023-05-10T20:05:08;16.77;;;8.23;;
36789;SDS011;22740;52.182;8.780;2023-05-10T20:11:10;16.85;;;8.75;;
36789;SDS011;22740;52.182;8.780;2023-05-10T20:17:12;11.98;;;8.20;;
36789;SDS011;22740;52.182;8.780;2023-05-10T20:23:15;18.50;;;10.15;;
36789;SDS011;22740;52.182;8.780;2023-05-10T20:29:17;15.30;;;9.30;;
36789;SDS011;22740;52.182;8.780;2023-05-10T20:35:19;15.68;;;9.73;;
36789;SDS011;22740;52.182;8.780;2023-05-10T20:41:20;16.00;;;9.63;;
36789;SDS011;22740;52.182;8.780;2023-05-10T20:47:22;15.00;;;9.88;;
36789;SDS011;22740;52.182;8.780;2023-05-10T20:53:24;15.75;;;10.32;;
36789;SDS011;22740;52.182;8.780;2023-05-10T20:59:26;19.65;;;9.60;;
36789;SDS011;22740;52.182;8.780;2023-05-10T21:05:29;12.07;;;8.23;;
36789;SDS011;22740;52.182;8.780;2023-05-10T21:11:32;14.25;;;9.13;;
36789;SDS011;22740;52.182;8.780;2023-05-10T21:17:36;15.65;;;9.38;;
36789;SDS011;22740;52.182;8.780;2023-05-10T21:23:38;18.10;;;11.63;;
36789;SDS011;22740;52.182;8.780;2023-05-10T21:29:40;18.48;;;11.15;;
36789;SDS011;22740;52.182;8.780;2023-05-10T21:35:41;20.02;;;11.80;;
36789;SDS011;22740;52.182;8.780;2023-05-10T21:41:44;19.73;;;13.10;;
36789;SDS011;22740;52.182;8.780;2023-05-10T21:47:46;20.25;;;13.38;;
36789;SDS011;22740;52.182;8.780;2023-05-10T21:53:48;22.02;;;13.77;;
36789;SDS011;22740;52.182;8.780;2023-05-10T21:59:50;23.02;;;13.23;;
36789;SDS011;22740;52.182;8.780;2023-05-10T22:05:52;23.63;;;14.90;;
36789;SDS011;22740;52.182;8.780;2023-05-10T22:11:54;24.48;;;14.30;;
36789;SDS011;22740;52.182;8.780;2023-05-10T22:17:56;22.02;;;12.90;;
36789;SDS011;22740;52.182;8.780;2023-05-10T22:23:58;22.05;;;13.18;;
36789;SDS011;22740;52.182;8.780;2023-05-10T22:29:59;18.88;;;11.70;;
36789;SDS011;22740;52.182;8.780;2023-05-10T22:36:01;19.60;;;11.75;;
36789;SDS011;22740;52.182;8.780;2023-05-10T22:42:03;12.27;;;8.93;;
36789;SDS011;22740;52.182;8.780;2023-05-10T22:48:05;19.50;;;11.52;;
36789;SDS011;22740;52.182;8.780;2023-05-10T22:54:09;17.85;;;11.40;;
36789;SDS011;22740;52.182;8.780;2023-05-10T23:00:11;11.02;;;8.02;;
36789;SDS011;22740;52.182;8.780;2023-05-10T23:06:14;17.75;;;12.15;;
36789;SDS011;22740;52.182;8.780;2023-05-10T23:12:16;19.83;;;11.52;;
36789;SDS011;22740;52.182;8.780;2023-05-10T23:18:18;17.20;;;12.10;;
36789;SDS011;22740;52.182;8.780;2023-05-10T23:24:19;24.05;;;13.95;;
36789;SDS011;22740;52.182;8.780;2023-05-10T23:30:21;15.35;;;10.48;;
36789;SDS011;22740;52.182;8.780;2023-05-10T23:36:23;18.65;;;12.10;;
36789;SDS011;22740;52.182;8.780;2023-05-10T23:42:25;25.42;;;14.27;;
36789;SDS011;22740;52.182;8.780;2023-05-10T23:48:27;22.23;;;14.85;;
36789;SDS011;22740;52.182;8.780;2023-05-10T23:54:29;28.20;;;16.38;;
